Time;durP1;ratioP1;P1;durP2;ratioP2;P2;SDS_P1;SDS_P2;PMS_P1;PMS_P2;Temp;Humidity;BMP_temperature;BMP_pressure;BME280_temperature;BME280_humidity;BME280_pressure;Samples;Min_cycle;Max_cycle;Signal;HPM_P1;HPM_P2
2021/12/04 00:01:50;;;;;;;28.85;17.08;;;;;;;0.97;61.87;99695.72;4373420;32;33370;-53
2021/12/04 00:04:28;;;;;;;27.27;16.20;;;;;;;1.12;61.43;99688.41;4373552;32;33979;-53
2021/12/04 00:06:56;;;;;;;29.40;17.02;;;;;;;1.15;60.83;99688.34;4373320;32;34876;-53
2021/12/04 00:09:23;;;;;;;;;;;;;;;1.04;61.09;99690.34;4373449;32;34521;-53
2021/12/04 00:11:56;;;;;;;29.73;17.70;;;;;;;0.94;62.27;99685.38;4373203;32;33048;-53
2021/12/04 00:14:24;;;;;;;30.75;16.92;;;;;;;1.01;61.73;99680.91;4359081;32;33550;-53
2021/12/04 00:16:52;;;;;;;29.17;16.98;;;;;;;1.04;61.83;99672.16;4373868;32;35133;-53
2021/12/04 00:19:20;;;;;;;27.98;16.67;;;;;;;0.91;62.02;99669.88;4373232;32;33945;-53
2021/12/04 00:21:48;;;;;;;29.80;17.17;;;;;;;0.84;62.20;99670.06;4373234;32;34556;-53
2021/12/04 00:24:16;;;;;;;28.95;18.55;;;;;;;0.59;62.98;99662.81;4372711;32;34397;-53
2021/12/04 00:26:44;;;;;;;31.42;17.83;;;;;;;0.56;63.08;99665.47;4373136;32;34116;-53
2021/12/04 00:29:12;;;;;;;30.75;17.30;;;;;;;0.66;62.71;99656.59;4373066;32;34524;-53
2021/12/04 00:31:45;;;;;;;;;;;;;;;0.77;62.13;99662.38;4373425;32;33565;-53
2021/12/04 00:34:14;;;;;;;27.50;16.23;;;;;;;0.73;61.97;99660.75;4373132;32;35164;-53
2021/12/04 00:50:17;;;;;;;26.90;16.65;;;;;;;0.11;64.07;99655.22;4372961;32;33751;-53
2021/12/04 00:52:45;;;;;;;29.10;16.58;;;;;;;0.49;62.54;99656.13;4373264;32;33350;-53
2021/12/04 00:55:12;;;;;;;27.90;16.65;;;;;;;0.53;62.14;99662.97;4372815;32;33704;-53
2021/12/04 00:57:40;;;;;;;23.50;15.25;;;;;;;0.26;63.42;99659.22;4373326;32;34103;-53
2021/12/04 01:00:09;;;;;;;25.02;15.95;;;;;;;0.34;63.15;99665.97;4372936;32;33781;-53
2021/12/04 01:02:36;;;;;;;27.23;14.50;;;;;;;0.30;63.56;99658.28;4372784;32;33278;-53
2021/12/04 01:05:04;;;;;;;27.37;16.20;;;;;;;0.26;63.74;99654.03;4360095;32;35340;-53
2021/12/04 01:07:33;;;;;;;29.87;14.00;;;;;;;0.33;62.97;99672.06;4372815;32;34495;-53
2021/12/04 01:10:04;;;;;;;25.80;16.40;;;;;;;0.52;62.92;99669.88;4372681;32;33678;-53
2021/12/04 01:12:32;;;;;;;26.83;16.05;;;;;;;0.51;62.61;99663.00;4372584;32;34070;-54
2021/12/04 01:14:59;;;;;;;24.90;16.33;;;;;;;0.48;62.44;99659.59;4373278;32;33803;-53
2021/12/04 01:17:27;;;;;;;24.80;14.73;;;;;;;0.36;62.48;99656.38;4372992;32;33121;-53
2021/12/04 01:19:54;;;;;;;28.62;14.52;;;;;;;0.34;62.84;99654.72;4372762;32;34961;-54
2021/12/04 01:22:25;;;;;;;27.75;16.40;;;;;;;0.45;62.45;99662.28;4373109;32;34262;-53
2021/12/04 01:24:53;;;;;;;26.55;16.65;;;;;;;0.66;61.47;99666.13;4372954;32;34254;-53
2021/12/04 01:27:22;;;;;;;26.95;14.80;;;;;;;0.34;62.37;99652.97;4373272;32;33983;-56
2021/12/04 01:29:49;;;;;;;28.67;17.10;;;;;;;0.32;62.37;99654.75;4372530;32;34198;-53
2021/12/04 01:32:17;;;;;;;25.17;16.65;;;;;;;0.28;62.82;99652.25;4371671;32;34008;-53
2021/12/04 01:34:44;;;;;;;25.08;16.08;;;;;;;-0.01;63.97;99656.31;4373057;32;33540;-53
2021/12/04 01:37:12;;;;;;;27.13;15.75;;;;;;;0.21;62.75;99661.06;4372680;32;33984;-53
2021/12/04 01:39:39;;;;;;;24.45;12.85;;;;;;;0.23;62.51;99659.28;4372643;32;33790;-53
2021/12/04 01:42:07;;;;;;;23.08;14.98;;;;;;;0.28;62.36;99652.25;4372170;32;33967;-53
2021/12/04 01:44:34;;;;;;;24.20;12.90;;;;;;;0.21;62.68;99638.53;4372972;32;33577;-53
2021/12/04 01:47:13;;;;;;;24.00;15.27;;;;;;;0.28;62.49;99650.50;4372581;32;35030;-53
2021/12/04 01:49:41;;;;;;;22.30;12.82;;;;;;;0.21;62.16;99650.69;4372592;32;34360;-53
2021/12/04 01:52:09;;;;;;;20.42;13.25;;;;;;;0.22;61.58;99653.25;4372359;32;34026;-53
2021/12/04 01:54:36;;;;;;;21.05;13.50;;;;;;;0.02;62.55;99648.50;4372377;32;33396;-54
2021/12/04 01:57:05;;;;;;;22.77;11.98;;;;;;;-0.05;63.12;99647.75;4372401;32;34182;-53
2021/12/04 01:59:32;;;;;;;23.67;14.00;;;;;;;0.16;62.62;99640.41;4372524;32;33899;-54
2021/12/04 02:02:00;;;;;;;24.75;15.23;;;;;;;0.41;62.04;99642.44;4359436;32;33523;-53
2021/12/04 02:04:28;;;;;;;25.15;12.85;;;;;;;0.11;62.45;99637.88;4358600;32;33461;-53
2021/12/04 02:06:55;;;;;;;24.90;14.00;;;;;;;0.15;62.36;99636.94;4371926;32;34161;-54
2021/12/04 02:09:23;;;;;;;21.80;13.13;;;;;;;0.19;62.36;99637.72;4372042;32;34482;-53
2021/12/04 02:11:50;;;;;;;22.90;13.80;;;;;;;0.11;62.38;99632.69;4372109;32;33122;-54
2021/12/04 02:14:18;;;;;;;25.42;13.60;;;;;;;0.22;61.97;99639.41;4372828;32;33403;-53
2021/12/04 02:16:45;;;;;;;28.40;15.43;;;;;;;0.19;61.72;99629.94;4371570;32;34170;-53
2021/12/04 02:19:13;;;;;;;27.55;14.15;;;;;;;0.03;62.31;99620.78;4372780;32;33023;-54
2021/12/04 02:21:41;;;;;;;;;;;;;;;-0.38;63.76;99620.75;4372113;32;33313;-53
2021/12/04 02:24:08;;;;;;;27.65;13.98;;;;;;;-0.10;63.08;99614.97;4372033;32;34612;-53
2021/12/04 02:26:36;;;;;;;27.58;14.05;;;;;;;-0.09;62.84;99616.69;4372180;32;34048;-53
2021/12/04 02:29:03;;;;;;;25.45;15.77;;;;;;;-0.09;62.56;99612.34;4371763;32;34896;-53
2021/12/04 02:31:31;;;;;;;27.92;16.92;;;;;;;-0.03;62.55;99609.63;4371901;32;33255;-53
2021/12/04 02:33:58;;;;;;;;;;;;;;;-0.04;62.47;99610.53;4372591;32;34644;-53
2021/12/04 02:36:26;;;;;;;26.23;13.05;;;;;;;0.10;62.03;99610.22;4372534;32;34132;-53
2021/12/04 02:38:54;;;;;;;26.33;13.25;;;;;;;0.24;61.52;99611.66;4371577;32;33707;-53
2021/12/04 02:41:22;;;;;;;25.25;15.63;;;;;;;0.09;62.04;99610.25;4372012;32;34885;-53
2021/12/04 02:43:50;;;;;;;25.10;13.55;;;;;;;-0.01;62.21;99605.25;4369211;32;34463;-53
2021/12/04 02:46:17;;;;;;;21.27;13.82;;;;;;;-0.14;62.41;99598.63;4374101;32;34412;-53
2021/12/04 02:48:47;;;;;;;21.37;13.20;;;;;;;-0.09;62.18;99593.34;4373686;32;34812;-53
2021/12/04 02:51:19;;;;;;;21.73;12.23;;;;;;;-0.14;62.44;99590.81;4373574;32;33522;-53
2021/12/04 02:53:46;;;;;;;22.45;12.90;;;;;;;0.06;61.69;99598.22;4374241;32;33570;-53
2021/12/04 02:56:14;;;;;;;24.02;12.77;;;;;;;-0.03;61.67;99593.22;4373814;32;34521;-53
2021/12/04 02:58:49;;;;;;;23.48;12.93;;;;;;;0.10;61.10;99597.25;4372604;32;34221;-54
2021/12/04 03:01:18;;;;;;;22.55;14.27;;;;;;;0.08;61.36;99598.16;4373550;32;33403;-53
2021/12/04 03:03:46;;;;;;;19.52;11.25;;;;;;;-0.01;61.65;99599.22;4373944;32;33929;-53
2021/12/04 03:06:14;;;;;;;20.12;12.25;;;;;;;-0.04;61.65;99599.28;4374317;32;34610;-53
2021/12/04 03:08:42;;;;;;;;;;;;;;;0.06;61.40;99599.91;4372652;32;34351;-53
2021/12/04 03:11:09;;;;;;;22.98;12.02;;;;;;;0.04;61.25;99607.78;4369450;32;34332;-54
2021/12/04 03:13:36;;;;;;;21.95;12.23;;;;;;;-0.32;62.15;99606.78;4373935;32;34839;-53
2021/12/04 03:16:04;;;;;;;21.37;11.82;;;;;;;-0.23;61.83;99601.41;4374016;32;34473;-53
2021/12/04 03:18:31;;;;;;;20.77;12.15;;;;;;;-0.14;61.54;99597.75;4373589;32;33557;-54
2021/12/04 03:21:02;;;;;;;21.25;11.45;;;;;;;-0.10;61.25;99600.25;4373646;32;33560;-53
2021/12/04 03:23:34;;;;;;;20.40;11.68;;;;;;;-0.07;60.83;99596.75;4374250;32;34276;-54
2021/12/04 03:26:20;;;;;;;21.87;12.00;;;;;;;-0.22;61.07;99593.59;4373861;32;34822;-53
2021/12/04 03:28:49;;;;;;;22.17;13.55;;;;;;;-0.33;61.61;99597.28;4372880;32;34293;-54
2021/12/04 03:42:30;;;;;;;20.10;11.48;;;;;;;-0.33;61.65;99556.66;4371268;32;33325;-53
2021/12/04 03:44:57;;;;;;;;;;;;;;;-0.38;61.87;99548.09;4374380;32;33790;-53
2021/12/04 03:47:25;;;;;;;20.95;11.73;;;;;;;-0.38;61.86;99539.47;4373677;32;34536;-53
2021/12/04 03:49:52;;;;;;;19.52;12.20;;;;;;;-0.26;61.15;99545.22;4373685;32;33980;-53
2021/12/04 03:52:20;;;;;;;18.58;11.57;;;;;;;-0.36;61.03;99537.69;4373928;32;33428;-53
2021/12/04 03:54:47;;;;;;;19.73;13.00;;;;;;;-0.32;60.97;99528.97;4373705;32;34713;-53
2021/12/04 03:57:15;;;;;;;20.20;12.20;;;;;;;-0.42;61.68;99530.88;4372883;32;34541;-54
2021/12/04 03:59:48;;;;;;;20.02;11.45;;;;;;;-0.45;61.90;99531.78;4373164;32;33603;-53
2021/12/04 04:02:16;;;;;;;22.35;12.35;;;;;;;-0.41;61.66;99527.41;4374234;32;33317;-54
2021/12/04 04:04:45;;;;;;;20.08;12.50;;;;;;;-0.49;61.58;99530.16;4373491;32;33864;-53
2021/12/04 04:07:12;;;;;;;19.58;12.07;;;;;;;-0.57;61.39;99542.44;4373560;32;35506;-53
2021/12/04 04:09:39;;;;;;;21.30;12.18;;;;;;;-0.55;61.28;99535.47;4373201;32;34223;-53
2021/12/04 04:12:07;;;;;;;23.55;12.63;;;;;;;-0.44;60.61;99532.66;4373815;32;33779;-54
2021/12/04 04:14:35;;;;;;;21.33;12.43;;;;;;;-0.52;60.88;99527.63;4360213;32;33724;-53
2021/12/04 04:17:04;;;;;;;18.67;10.88;;;;;;;-0.53;61.13;99520.72;4373521;32;35429;-54
2021/12/04 04:19:32;;;;;;;20.52;11.77;;;;;;;-0.54;61.22;99524.22;4373317;32;34812;-53
2021/12/04 04:22:00;;;;;;;22.48;11.55;;;;;;;-0.70;62.06;99526.28;4373178;32;33094;-53
2021/12/04 04:24:28;;;;;;;18.23;10.93;;;;;;;-0.65;61.85;99521.84;4373781;32;33389;-54
2021/12/04 04:26:56;;;;;;;17.98;10.95;;;;;;;-0.68;61.71;99521.91;4373528;32;34118;-53
2021/12/04 04:29:25;;;;;;;19.50;11.70;;;;;;;-0.50;61.37;99518.09;4372926;32;33880;-53
2021/12/04 04:31:54;;;;;;;19.77;11.38;;;;;;;-0.40;61.08;99529.13;4372899;32;33874;-53
2021/12/04 04:59:35;;;;;;;23.38;14.10;;;;;;;-0.65;61.18;99540.00;4373228;32;35153;-54
2021/12/04 05:12:51;;;;;;;19.42;12.02;;;;;;;-0.88;61.24;99537.84;4373261;32;33826;-53
2021/12/04 05:18:22;;;;;;;22.02;11.52;;;;;;;-0.73;60.66;99539.28;4373061;32;33495;-54
2021/12/04 05:21:11;;;;;;;20.20;12.13;;;;;;;-0.91;61.16;99529.25;4373526;32;34222;-54
2021/12/04 05:23:48;;;;;;;24.35;12.60;;;;;;;-0.93;61.37;99525.84;4373198;32;33961;-53
2021/12/04 05:26:18;;;;;;;24.98;13.48;;;;;;;-1.01;61.52;99516.50;4371767;32;33555;-53
2021/12/04 05:28:46;;;;;;;24.23;12.98;;;;;;;-1.01;61.16;99513.03;4373354;32;34375;-53
2021/12/04 05:31:14;;;;;;;22.30;13.18;;;;;;;-1.27;62.15;99516.13;4373239;32;34250;-53
2021/12/04 05:33:42;;;;;;;;;;;;;;;-1.13;61.92;99518.47;4373528;32;34155;-53
2021/12/04 05:36:09;;;;;;;22.27;12.32;;;;;;;-0.90;60.95;99526.66;4372336;32;33207;-53
2021/12/04 05:38:37;;;;;;;23.10;12.57;;;;;;;-0.89;60.83;99515.41;4372021;32;33665;-53
2021/12/04 05:41:05;;;;;;;21.85;12.93;;;;;;;-1.11;61.76;99517.53;4372800;32;34707;-53
2021/12/04 05:43:34;;;;;;;24.58;13.00;;;;;;;-0.96;61.18;99518.16;4371560;32;33838;-53
2021/12/04 05:46:16;;;;;;;26.80;14.40;;;;;;;-1.20;62.34;99525.50;4372780;32;33154;-53
2021/12/04 05:48:58;;;;;;;23.00;13.02;;;;;;;-1.40;63.48;99518.06;4372904;32;33571;-53
2021/12/04 05:56:45;;;;;;;27.73;14.73;;;;;;;-1.03;61.98;99510.50;4372146;32;34584;-53
2021/12/04 05:59:13;;;;;;;;;;;;;;;-1.09;62.44;99515.78;4373401;32;34440;-53
2021/12/04 06:01:40;;;;;;;24.12;13.70;;;;;;;-0.91;61.66;99511.13;4372283;32;34863;-53
2021/12/04 06:04:08;;;;;;;;;;;;;;;-0.90;61.61;99507.66;4372741;32;34110;-53
2021/12/04 06:06:35;;;;;;;24.52;13.52;;;;;;;-1.00;61.72;99507.81;4372777;32;34259;-53
2021/12/04 06:09:06;;;;;;;25.42;14.05;;;;;;;-0.94;61.50;99503.41;4372191;32;33633;-53
2021/12/04 06:11:34;;;;;;;24.33;14.32;;;;;;;-1.02;61.70;99504.41;4372057;32;34551;-53
2021/12/04 06:14:02;;;;;;;26.40;15.10;;;;;;;-1.01;61.61;99500.94;4372244;32;34839;-53
2021/12/04 06:16:30;;;;;;;25.35;15.88;;;;;;;-1.18;62.30;99508.19;4363098;32;33556;-53
2021/12/04 06:19:05;;;;;;;26.35;15.90;;;;;;;-1.24;62.54;99495.31;4367545;32;34712;-53
2021/12/04 06:24:18;;;;;;;30.10;16.12;;;;;;;-1.07;61.83;99505.37;4373766;32;34468;-53
2021/12/04 06:26:46;;;;;;;29.58;16.65;;;;;;;-1.06;62.09;99497.59;4373279;32;34290;-54
2021/12/04 06:29:13;;;;;;;34.92;18.42;;;;;;;-1.26;62.07;99500.56;4374713;32;34708;-53
2021/12/04 06:31:41;;;;;;;31.27;18.00;;;;;;;-1.13;62.08;99500.31;4373777;32;33739;-53
2021/12/04 06:34:08;;;;;;;26.00;15.98;;;;;;;-1.09;61.83;99494.19;4374080;32;34139;-54
2021/12/04 06:36:37;;;;;;;25.92;15.85;;;;;;;-0.92;61.83;99502.50;4373189;32;33473;-53
2021/12/04 06:39:05;;;;;;;29.17;15.98;;;;;;;-1.12;62.15;99502.88;4373620;32;33414;-54
2021/12/04 06:41:32;;;;;;;29.85;16.10;;;;;;;-1.17;62.31;99502.09;4373775;32;35391;-53
2021/12/04 06:44:00;;;;;;;35.30;19.00;;;;;;;-0.98;62.22;99492.25;4372873;32;34684;-53
2021/12/04 06:46:29;;;;;;;39.50;20.62;;;;;;;-1.00;62.29;99494.88;4372747;32;33353;-53
2021/12/04 06:56:23;;;;;;;43.42;22.52;;;;;;;-1.09;62.44;99491.59;4373813;32;33946;-53
2021/12/04 06:58:52;;;;;;;42.08;22.62;;;;;;;-0.88;61.69;99493.78;4373762;32;33544;-53
2021/12/04 07:01:20;;;;;;;36.15;22.25;;;;;;;-0.87;61.84;99492.06;4373748;32;34074;-53
2021/12/04 07:03:48;;;;;;;40.70;21.48;;;;;;;-1.00;62.62;99491.44;4374301;32;33487;-53
2021/12/04 07:06:15;;;;;;;;;;;;;;;-1.08;62.98;99486.41;4361537;32;33646;-53
2021/12/04 07:08:43;;;;;;;38.67;23.05;;;;;;;-0.83;62.41;99479.00;4374082;32;35066;-53
2021/12/04 07:11:10;;;;;;;44.97;24.50;;;;;;;-0.80;62.12;99465.94;4373572;32;34202;-53
2021/12/04 07:13:38;;;;;;;43.87;25.40;;;;;;;-0.78;62.26;99465.91;4373068;32;33868;-53
2021/12/04 07:16:08;;;;;;;42.53;23.87;;;;;;;-0.82;62.38;99470.31;4373464;32;34090;-54
2021/12/04 07:18:38;;;;;;;43.22;24.25;;;;;;;-0.72;62.00;99475.31;4372761;32;34074;-53
2021/12/04 07:21:06;;;;;;;47.78;28.48;;;;;;;-0.73;62.45;99469.28;4373911;32;34132;-54
2021/12/04 07:23:33;;;;;;;47.20;25.52;;;;;;;-0.51;65.78;99469.66;4373337;32;33916;-53
2021/12/04 07:26:05;;;;;;;44.40;24.67;;;;;;;-0.41;65.02;99465.13;4372722;32;33302;-54
2021/12/04 07:28:33;;;;;;;42.38;23.98;;;;;;;-0.45;64.25;99461.75;4367423;32;34545;-53
2021/12/04 07:31:00;;;;;;;;;;;;;;;-0.51;64.30;99448.91;4372772;32;35131;-54
2021/12/04 07:33:28;;;;;;;41.65;23.12;;;;;;;-0.41;63.78;99441.78;4374054;32;34951;-53
2021/12/04 07:35:57;;;;;;;43.10;26.52;;;;;;;-0.38;63.46;99439.13;4372688;32;33881;-53
2021/12/04 07:38:25;;;;;;;45.75;25.88;;;;;;;-0.30;63.29;99439.81;4373824;32;33680;-53
2021/12/04 07:40:53;;;;;;;48.90;27.58;;;;;;;-0.14;63.12;99434.25;4373819;32;34363;-54
2021/12/04 07:43:21;;;;;;;46.42;28.27;;;;;;;-0.09;63.17;99430.66;4373508;32;34620;-53
2021/12/04 07:45:49;;;;;;;;;;;;;;;-0.29;63.77;99427.69;4359725;32;33555;-53
2021/12/04 07:48:16;;;;;;;42.28;27.48;;;;;;;-0.12;63.29;99422.09;4373124;32;34938;-53
2021/12/04 07:50:44;;;;;;;45.42;28.40;;;;;;;0.33;62.45;99422.72;4373515;32;33126;-53
2021/12/04 07:53:11;;;;;;;47.60;28.85;;;;;;;0.25;65.64;99423.78;4373573;32;34807;-54
2021/12/04 07:55:38;;;;;;;46.88;28.40;;;;;;;0.84;74.90;99423.94;4373680;32;33670;-53
2021/12/04 07:58:06;;;;;;;;;;;;;;;0.83;71.50;99418.78;4373996;32;33711;-53
2021/12/04 08:00:33;;;;;;;49.13;31.17;;;;;;;0.90;67.62;99433.31;4373555;32;35401;-54
2021/12/04 08:03:01;;;;;;;43.65;30.98;;;;;;;0.98;66.81;99427.00;4373630;32;34337;-53
2021/12/04 08:05:29;;;;;;;46.35;30.77;;;;;;;0.73;65.53;99431.19;4373262;32;33095;-54
2021/12/04 08:07:57;;;;;;;43.60;30.08;;;;;;;0.57;64.40;99423.81;4373819;32;35641;-53
2021/12/04 08:10:24;;;;;;;41.63;29.75;;;;;;;0.73;63.85;99428.59;4373652;32;34201;-53
2021/12/04 08:12:52;;;;;;;42.83;29.33;;;;;;;0.62;63.98;99428.87;4374271;32;33899;-54
2021/12/04 08:15:19;;;;;;;49.67;33.03;;;;;;;0.66;64.08;99434.84;4373266;32;33289;-53
2021/12/04 08:17:47;;;;;;;53.45;34.78;;;;;;;0.68;64.18;99428.72;4373051;32;33710;-54
2021/12/04 08:20:16;;;;;;;51.95;35.80;;;;;;;0.76;63.93;99431.13;4373418;32;34366;-53
2021/12/04 08:22:43;;;;;;;54.70;35.95;;;;;;;0.65;64.53;99427.94;4373481;32;34100;-53
2021/12/04 08:25:12;;;;;;;;;;;;;;;0.81;64.25;99420.56;4373691;32;34511;-53
2021/12/04 08:27:40;;;;;;;54.28;35.72;;;;;;;1.12;63.48;99428.34;4373756;32;33855;-53
2021/12/04 08:30:08;;;;;;;;;;;;;;;1.05;64.28;99439.81;4373434;32;33598;-53
2021/12/04 08:32:36;;;;;;;49.25;30.83;;;;;;;1.02;64.51;99424.31;4373468;32;33959;-53
2021/12/04 08:35:05;;;;;;;43.87;30.20;;;;;;;0.99;64.58;99422.69;4373631;32;34030;-54
2021/12/04 08:37:32;;;;;;;40.15;28.73;;;;;;;1.03;64.22;99428.59;4358499;32;33608;-53
2021/12/04 08:40:00;;;;;;;36.92;25.70;;;;;;;1.39;63.42;99429.28;4363865;32;35386;-54
2021/12/04 08:42:28;;;;;;;35.47;23.95;;;;;;;1.32;63.51;99418.22;4372334;32;34140;-53
2021/12/04 08:44:55;;;;;;;33.05;22.92;;;;;;;1.67;62.67;99416.31;4373661;32;33665;-53
2021/12/04 08:47:24;;;;;;;30.77;20.62;;;;;;;1.53;63.17;99418.47;4373670;32;33512;-53
2021/12/04 08:49:53;;;;;;;32.63;20.98;;;;;;;1.74;62.80;99407.37;4373077;32;34901;-53
2021/12/04 08:52:20;;;;;;;33.00;21.35;;;;;;;1.66;63.07;99411.12;4373279;32;34927;-53
2021/12/04 08:54:48;;;;;;;33.75;22.45;;;;;;;1.80;62.95;99408.09;4372828;32;33221;-53
2021/12/04 08:57:15;;;;;;;31.73;21.33;;;;;;;1.83;62.26;99414.06;4373462;32;33778;-54
2021/12/04 08:59:47;;;;;;;36.05;21.95;;;;;;;1.94;62.32;99409.38;4373545;32;35134;-53
2021/12/04 09:02:16;;;;;;;33.03;21.52;;;;;;;1.96;62.32;99410.16;4373171;32;33997;-53
2021/12/04 09:04:46;;;;;;;36.72;22.90;;;;;;;2.10;62.04;99401.88;4373461;32;33266;-53
2021/12/04 09:07:15;;;;;;;37.30;24.40;;;;;;;2.09;62.37;99405.38;4372076;32;33585;-53
2021/12/04 09:09:45;;;;;;;37.67;24.77;;;;;;;2.23;62.47;99394.53;4372033;32;35078;-53
2021/12/04 09:12:23;;;;;;;36.10;25.33;;;;;;;2.39;62.32;99401.81;4372605;32;33324;-53
2021/12/04 09:14:52;;;;;;;39.83;26.05;;;;;;;2.43;62.32;99399.03;4373123;32;32855;-53
2021/12/04 09:17:20;;;;;;;38.15;25.08;;;;;;;2.46;62.66;99392.88;4373234;32;35280;-53
2021/12/04 09:19:49;;;;;;;41.67;27.02;;;;;;;2.52;62.82;99390.91;4373169;32;33947;-53
2021/12/04 09:22:39;;;;;;;40.03;26.70;;;;;;;2.67;62.41;99386.06;4372637;32;33820;-53
2021/12/04 09:25:12;;;;;;;38.42;25.55;;;;;;;2.79;62.08;99385.59;4373293;32;33284;-53
2021/12/04 10:03:20;;;;;;;39.03;23.30;;;;;;;3.72;57.72;99328.09;4372285;32;34208;-53
2021/12/04 10:18:15;;;;;;;33.72;20.80;;;;;;;3.79;55.85;99290.38;4372503;32;34030;-53
2021/12/04 10:23:32;;;;;;;44.10;24.17;;;;;;;4.03;55.87;99285.03;4372434;32;32652;-53
2021/12/04 10:34:27;;;;;;;40.15;26.15;;;;;;;4.10;56.02;99278.63;4372349;32;33620;-53
2021/12/04 10:37:07;;;;;;;43.92;27.85;;;;;;;3.99;56.06;99270.41;4371363;32;35159;-53
2021/12/04 10:39:35;;;;;;;45.42;27.58;;;;;;;4.00;60.18;99272.94;4369480;32;34297;-54
2021/12/04 10:42:09;;;;;;;40.03;25.12;;;;;;;4.07;63.82;99258.72;4371091;32;33213;-53
2021/12/04 10:44:44;;;;;;;34.72;20.88;;;;;;;4.02;57.10;99252.81;4371811;32;34004;-54
2021/12/04 10:47:13;;;;;;;48.03;26.58;;;;;;;4.13;54.55;99257.59;4372403;32;34561;-53
2021/12/04 10:49:54;;;;;;;67.72;37.88;;;;;;;4.14;54.05;99241.00;4372109;32;33966;-54
2021/12/04 10:52:31;;;;;;;35.25;22.50;;;;;;;4.14;54.43;99247.06;4371279;32;33108;-53
2021/12/04 10:55:11;;;;;;;43.80;26.60;;;;;;;4.28;53.04;99233.38;4371377;32;33463;-54
2021/12/04 11:02:57;;;;;;;35.15;22.62;;;;;;;4.52;59.25;99217.50;4371287;32;34514;-54
2021/12/04 11:06:05;;;;;;;35.33;21.42;;;;;;;4.49;52.40;99222.87;4371657;32;34313;-53
2021/12/04 11:36:23;;;;;;;26.05;15.90;;;;;;;4.32;50.23;99166.12;4373325;32;32947;-53
2021/12/04 11:41:38;;;;;;;27.90;16.27;;;;;;;4.46;49.12;99168.09;4373793;32;34565;-53
2021/12/04 11:44:12;;;;;;;27.35;17.27;;;;;;;4.61;49.40;99156.06;4373148;32;33659;-53
2021/12/04 11:46:46;;;;;;;30.00;17.87;;;;;;;4.43;48.86;99148.19;4360811;32;33700;-53
2021/12/04 11:49:20;;;;;;;31.10;19.55;;;;;;;4.57;48.92;99142.28;4373827;32;34468;-53
2021/12/04 11:52:01;;;;;;;29.77;17.23;;;;;;;4.67;49.61;99147.94;4373326;32;34488;-53
2021/12/04 11:54:32;;;;;;;30.50;16.58;;;;;;;4.46;48.14;99134.97;4372326;32;34577;-54
2021/12/04 11:57:03;;;;;;;26.40;16.08;;;;;;;4.63;48.21;99133.31;4373888;32;33147;-53
2021/12/04 11:59:33;;;;;;;24.77;15.60;;;;;;;4.47;49.10;99135.81;4373669;32;34171;-53
2021/12/04 12:02:01;;;;;;;25.73;15.07;;;;;;;4.42;48.54;99141.28;4373474;32;34277;-54
2021/12/04 12:04:44;;;;;;;22.52;12.90;;;;;;;4.47;48.36;99128.81;4373963;32;33909;-53
2021/12/04 12:07:17;;;;;;;21.83;13.23;;;;;;;4.38;47.18;99121.44;4372717;32;34292;-53
2021/12/04 12:09:47;;;;;;;22.50;14.43;;;;;;;4.47;47.75;99126.19;4373465;32;34662;-53
2021/12/04 12:12:16;;;;;;;21.62;13.50;;;;;;;4.43;48.63;99127.25;4373519;32;35331;-53
2021/12/04 12:14:52;;;;;;;29.30;15.73;;;;;;;4.53;48.71;99127.69;4373822;32;33983;-53
2021/12/04 12:17:31;;;;;;;48.42;25.73;;;;;;;4.46;48.89;99126.25;4372859;32;33025;-53
2021/12/04 12:20:00;;;;;;;104.60;43.50;;;;;;;4.64;49.23;99122.78;4373452;32;34055;-54
2021/12/04 12:25:38;;;;;;;40.38;21.75;;;;;;;4.64;48.43;99120.19;4372958;32;35201;-54
2021/12/04 12:36:13;;;;;;;45.47;26.25;;;;;;;4.77;47.81;99109.09;4373506;32;34535;-53
2021/12/04 12:39:11;;;;;;;65.15;36.00;;;;;;;4.57;48.76;99115.31;4373123;32;34104;-53
2021/12/04 12:41:41;;;;;;;32.95;20.75;;;;;;;4.50;49.47;99101.69;4373483;32;34745;-54
2021/12/04 12:44:22;;;;;;;28.83;18.85;;;;;;;4.82;48.54;99092.28;4373724;32;34116;-53
2021/12/04 12:46:57;;;;;;;35.05;23.02;;;;;;;4.67;48.83;99099.13;4373067;32;34804;-54
2021/12/04 12:49:33;;;;;;;42.22;25.50;;;;;;;4.60;49.59;99089.03;4373516;32;33274;-53
2021/12/04 12:52:13;;;;;;;32.75;21.27;;;;;;;4.47;50.78;99084.38;4373458;32;33639;-53
2021/12/04 12:54:43;;;;;;;32.67;20.45;;;;;;;4.63;50.44;99091.47;4373352;32;35061;-53
2021/12/04 12:57:27;;;;;;;31.12;19.58;;;;;;;4.48;50.75;99091.31;4373631;32;33633;-53
2021/12/04 13:14:12;;;;;;;33.08;20.60;;;;;;;4.49;51.51;99085.13;4373260;32;33986;-53
2021/12/04 13:16:43;;;;;;;37.50;22.95;;;;;;;4.60;51.42;99084.63;4372910;32;34677;-53
2021/12/04 13:19:14;;;;;;;33.10;21.85;;;;;;;4.69;50.97;99084.19;4373688;32;33804;-54
2021/12/04 13:21:44;;;;;;;36.55;22.27;;;;;;;4.67;51.40;99077.31;4373164;32;33189;-54
2021/12/04 13:24:12;;;;;;;33.55;21.70;;;;;;;4.83;51.56;99080.91;4373017;32;34034;-53
2021/12/04 13:26:47;;;;;;;35.60;22.65;;;;;;;4.61;51.75;99078.47;4373101;32;34832;-53
2021/12/04 13:29:17;;;;;;;34.17;21.67;;;;;;;4.46;51.70;99087.91;4358678;32;34183;-53
2021/12/04 13:31:45;;;;;;;33.90;22.00;;;;;;;4.61;51.56;99082.84;4373494;32;33913;-53
2021/12/04 13:34:25;;;;;;;36.13;22.55;;;;;;;4.48;52.15;99077.41;4373214;32;33433;-54
2021/12/04 13:36:53;;;;;;;38.90;22.73;;;;;;;4.58;52.72;99073.41;4372931;32;34251;-53
2021/12/04 13:39:21;;;;;;;37.63;22.60;;;;;;;4.57;52.06;99061.25;4373070;32;33947;-53
2021/12/04 13:41:50;;;;;;;35.50;23.55;;;;;;;4.70;52.06;99066.72;4373038;32;33639;-54
2021/12/04 13:44:19;;;;;;;35.80;22.83;;;;;;;4.42;52.24;99065.47;4371211;32;34386;-54
2021/12/04 13:46:52;;;;;;;37.78;22.92;;;;;;;4.35;52.50;99058.81;4367347;32;34379;-53
2021/12/04 13:49:32;;;;;;;34.40;21.92;;;;;;;4.52;52.13;99058.03;4372227;32;34020;-53
2021/12/04 13:52:06;;;;;;;33.42;21.12;;;;;;;4.60;51.93;99057.66;4372854;32;33070;-54
2021/12/04 13:54:39;;;;;;;35.63;22.70;;;;;;;4.59;52.30;99053.31;4372285;32;34092;-54
2021/12/04 13:57:08;;;;;;;33.40;21.23;;;;;;;4.63;52.27;99044.41;4371913;32;34972;-53
2021/12/04 13:59:37;;;;;;;34.28;21.12;;;;;;;4.70;52.23;99035.34;4370658;32;33674;-53
2021/12/04 14:02:05;;;;;;;30.67;19.42;;;;;;;4.71;52.36;99031.78;4373284;32;33130;-54
2021/12/04 14:04:33;;;;;;;29.63;18.42;;;;;;;4.67;50.70;99017.19;4370817;32;33739;-53
2021/12/04 14:07:02;;;;;;;29.37;18.73;;;;;;;4.50;50.51;99000.56;4372977;32;35053;-53
2021/12/04 14:09:33;;;;;;;27.58;17.75;;;;;;;4.44;51.13;98987.81;4372259;32;34786;-53
2021/12/04 14:12:03;;;;;;;26.23;15.80;;;;;;;4.48;51.07;98988.50;4371805;32;32803;-54
2021/12/04 14:14:32;;;;;;;24.55;15.25;;;;;;;4.35;49.75;98980.41;4372484;32;34293;-53
2021/12/04 14:17:12;;;;;;;23.30;14.38;;;;;;;4.28;50.46;98979.84;4369430;32;34714;-54
2021/12/04 14:19:40;;;;;;;25.23;14.82;;;;;;;4.44;49.50;98985.19;4371699;32;33586;-53
2021/12/04 14:22:18;;;;;;;23.42;14.30;;;;;;;4.48;49.64;98986.72;4372335;32;32763;-54
2021/12/04 14:24:54;;;;;;;26.98;14.10;;;;;;;4.48;49.88;98978.06;4351237;32;33659;-53
2021/12/04 14:27:28;;;;;;;26.08;14.52;;;;;;;4.60;49.68;98976.59;4372176;32;34288;-54
2021/12/04 14:29:58;;;;;;;23.25;14.63;;;;;;;4.49;49.79;98983.19;4358155;32;33655;-53
2021/12/04 14:32:30;;;;;;;24.20;13.93;;;;;;;4.52;50.19;98984.81;4372270;32;33403;-53
2021/12/04 14:35:02;;;;;;;27.90;14.98;;;;;;;4.51;50.75;98986.56;4374362;32;33649;-54
2021/12/04 14:37:35;;;;;;;23.42;15.55;;;;;;;4.41;51.06;98995.78;4372042;32;36299;-54
2021/12/04 14:40:05;;;;;;;26.92;15.55;;;;;;;4.50;51.07;98991.88;4372653;32;34493;-53
2021/12/04 14:42:33;;;;;;;29.67;17.92;;;;;;;4.65;50.78;98988.50;4374090;32;32974;-54
2021/12/04 14:45:03;;;;;;;;;;;;;;;4.39;51.73;98995.03;4368991;32;33712;-54
2021/12/04 14:47:38;;;;;;;31.33;19.87;;;;;;;4.29;52.24;98981.56;4358702;32;34273;-54
2021/12/04 14:50:09;;;;;;;41.45;25.77;;;;;;;4.38;51.93;98979.41;4359207;32;33864;-54
2021/12/04 14:52:37;;;;;;;35.03;22.58;;;;;;;4.31;51.74;98976.25;4358460;32;32752;-54
2021/12/04 14:55:11;;;;;;;;;;;;;;;4.47;51.35;98977.19;4358709;32;34070;-54
2021/12/04 14:57:41;;;;;;;26.02;17.80;;;;;;;4.24;51.69;98983.53;4358980;32;34369;-53
2021/12/04 15:00:12;;;;;;;30.92;21.77;;;;;;;4.21;52.18;98980.25;4359083;32;33868;-54